Time;durP1;ratioP1;P1;durP2;ratioP2;P2;SDS_P1;SDS_P2;PMS_P1;PMS_P2;Temp;Humidity;BMP_temperature;BMP_pressure;BME280_temperature;BME280_humidity;BME280_pressure;Samples;Min_cycle;Max_cycle;Signal;HPM_P1;HPM_P2
2023/06/16 00:02:08;;;;;;;8.90;6.85;;;;;;;;;;5056650;28;20047;-82
2023/06/16 00:04:35;;;;;;;10.73;7.35;;;;;;;;;;5061629;28;20045;-80
2023/06/16 00:07:06;;;;;;;10.77;7.88;;;;;;;;;;5066615;28;20132;-82
2023/06/16 00:09:34;;;;;;;9.23;7.55;;;;;;;;;;5055518;28;20044;-82
2023/06/16 00:12:00;;;;;;;9.52;7.43;;;;;;;;;;5053882;28;20052;-82
2023/06/16 00:14:27;;;;;;;9.48;7.10;;;;;;;;;;5055103;28;20072;-82
2023/06/16 00:16:57;;;;;;;7.65;6.60;;;;;;;;;;5054158;28;20045;-82
2023/06/16 00:19:28;;;;;;;10.10;6.70;;;;;;;;;;5054338;28;20056;-82
2023/06/16 00:21:59;;;;;;;8.95;6.80;;;;;;;;;;5054336;28;20053;-82
2023/06/16 00:24:26;;;;;;;9.00;7.25;;;;;;;;;;5054094;28;20496;-82
2023/06/16 00:26:54;;;;;;;8.05;6.45;;;;;;;;;;5053536;28;20531;-82
2023/06/16 00:29:21;;;;;;;10.88;7.03;;;;;;;;;;5054628;28;20045;-82
2023/06/16 00:31:48;;;;;;;8.10;6.80;;;;;;;;;;5053544;28;20041;-82
2023/06/16 00:34:15;;;;;;;8.95;6.78;;;;;;;;;;5054369;28;20073;-82
2023/06/16 00:36:41;;;;;;;8.68;7.38;;;;;;;;;;5057120;28;20079;-82
2023/06/16 00:39:09;;;;;;;9.82;7.53;;;;;;;;;;5062787;28;20053;-82
2023/06/16 00:41:36;;;;;;;8.45;6.22;;;;;;;;;;5063321;28;20053;-82
2023/06/16 00:44:04;;;;;;;9.75;7.80;;;;;;;;;;5063642;28;20049;-81
2023/06/16 00:46:33;;;;;;;10.15;7.43;;;;;;;;;;5063019;28;20055;-81
2023/06/16 00:49:01;;;;;;;10.83;7.10;;;;;;;;;;5043045;28;20056;-81
2023/06/16 00:51:30;;;;;;;11.55;7.45;;;;;;;;;;5056152;28;20343;-81
2023/06/16 00:53:56;;;;;;;10.23;7.70;;;;;;;;;;5062298;28;20079;-81
2023/06/16 00:56:24;;;;;;;9.68;7.30;;;;;;;;;;5063892;28;20075;-82
2023/06/16 00:58:52;;;;;;;8.25;6.97;;;;;;;;;;5062761;28;20118;-82
2023/06/16 01:01:21;;;;;;;9.05;6.65;;;;;;;;;;5074558;28;20053;-82
2023/06/16 01:03:50;;;;;;;10.00;6.95;;;;;;;;;;5077547;28;20040;-82
2023/06/16 01:06:36;;;;;;;8.32;6.47;;;;;;;;;;5077292;28;20056;-82
2023/06/16 01:09:09;;;;;;;8.20;6.57;;;;;;;;;;5076745;28;20075;-81
2023/06/16 01:11:42;;;;;;;8.93;6.78;;;;;;;;;;5077003;28;20041;-82
2023/06/16 01:14:16;;;;;;;8.68;7.28;;;;;;;;;;5076502;28;20041;-80
2023/06/16 01:16:47;;;;;;;8.02;6.72;;;;;;;;;;5076532;28;20159;-81
2023/06/16 01:19:23;;;;;;;8.90;7.15;;;;;;;;;;5077263;28;20053;-81
2023/06/16 01:21:57;;;;;;;8.73;7.03;;;;;;;;;;5076289;28;20108;-80
2023/06/16 01:24:27;;;;;;;9.90;6.90;;;;;;;;;;5075406;28;20056;-82
2023/06/16 01:26:58;;;;;;;8.00;6.50;;;;;;;;;;5075693;28;20079;-81
2023/06/16 01:29:26;;;;;;;8.63;7.28;;;;;;;;;;5074778;28;20049;-81
2023/06/16 01:31:55;;;;;;;7.50;6.30;;;;;;;;;;5063354;28;20045;-81
2023/06/16 01:34:22;;;;;;;9.57;7.22;;;;;;;;;;5059536;28;20557;-82
2023/06/16 01:36:49;;;;;;;8.55;6.85;;;;;;;;;;5063493;28;20049;-81
2023/06/16 01:39:18;;;;;;;12.77;7.57;;;;;;;;;;5063556;28;20052;-82
2023/06/16 01:41:49;;;;;;;10.13;7.28;;;;;;;;;;5059276;28;20052;-82
2023/06/16 01:44:17;;;;;;;9.15;7.28;;;;;;;;;;5065014;28;20049;-82
2023/06/16 01:46:45;;;;;;;8.73;6.85;;;;;;;;;;5070062;28;20120;-82
2023/06/16 01:49:12;;;;;;;9.35;7.80;;;;;;;;;;5068715;28;20086;-82
2023/06/16 01:51:39;;;;;;;8.85;7.38;;;;;;;;;;5056776;28;20076;-82
2023/06/16 01:54:06;;;;;;;9.80;7.43;;;;;;;;;;5056858;28;20076;-83
2023/06/16 01:56:33;;;;;;;11.07;7.93;;;;;;;;;;5057107;28;20094;-83
2023/06/16 01:59:01;;;;;;;11.32;8.50;;;;;;;;;;5056376;28;20098;-80
2023/06/16 02:01:29;;;;;;;10.85;8.10;;;;;;;;;;5056692;28;20079;-81
2023/06/16 02:04:02;;;;;;;9.85;7.78;;;;;;;;;;5056571;28;20053;-81
2023/06/16 02:06:32;;;;;;;9.25;7.88;;;;;;;;;;5056273;28;20463;-81
2023/06/16 02:09:02;;;;;;;10.77;8.13;;;;;;;;;;5056051;28;20144;-81
2023/06/16 02:11:30;;;;;;;9.82;8.02;;;;;;;;;;5056085;28;20102;-81
2023/06/16 02:13:57;;;;;;;10.18;7.75;;;;;;;;;;5055970;28;20045;-82
2023/06/16 02:16:25;;;;;;;10.13;7.30;;;;;;;;;;5056532;28;20044;-82
2023/06/16 02:18:53;;;;;;;10.40;7.80;;;;;;;;;;5056415;28;20371;-82
2023/06/16 02:21:21;;;;;;;9.52;7.93;;;;;;;;;;5057057;28;20080;-82
2023/06/16 02:23:47;;;;;;;8.48;7.13;;;;;;;;;;5056618;28;20045;-81
2023/06/16 02:26:14;;;;;;;10.55;7.43;;;;;;;;;;5056228;28;20049;-81
2023/06/16 02:28:41;;;;;;;8.85;7.28;;;;;;;;;;5056125;28;20041;-81
2023/06/16 02:31:07;;;;;;;8.15;7.35;;;;;;;;;;5055859;28;20135;-81
2023/06/16 02:33:36;;;;;;;8.93;7.53;;;;;;;;;;5055757;28;20099;-82
2023/06/16 02:36:02;;;;;;;11.45;7.55;;;;;;;;;;5055213;28;20121;-82
2023/06/16 02:38:30;;;;;;;9.98;8.20;;;;;;;;;;5054956;28;20095;-80
2023/06/16 02:40:56;;;;;;;9.63;8.63;;;;;;;;;;5054845;28;20075;-82
2023/06/16 02:43:23;;;;;;;8.63;7.72;;;;;;;;;;5056378;28;20468;-82
2023/06/16 02:45:50;;;;;;;9.95;7.72;;;;;;;;;;5055671;28;20049;-82
2023/06/16 02:48:16;;;;;;;9.65;8.52;;;;;;;;;;5055655;28;20051;-81
2023/06/16 02:50:44;;;;;;;10.48;8.38;;;;;;;;;;5055371;28;20049;-81
2023/06/16 02:53:13;;;;;;;10.13;8.10;;;;;;;;;;5055935;28;20411;-81
2023/06/16 02:55:40;;;;;;;10.45;8.20;;;;;;;;;;5055642;28;20083;-81
2023/06/16 02:58:06;;;;;;;10.60;8.30;;;;;;;;;;5055243;28;20045;-82
2023/06/16 03:00:34;;;;;;;11.10;9.60;;;;;;;;;;5055426;28;20045;-83
2023/06/16 03:03:01;;;;;;;10.80;8.68;;;;;;;;;;5056268;28;20119;-82
2023/06/16 03:05:27;;;;;;;9.73;8.00;;;;;;;;;;5062328;28;20043;-83
2023/06/16 03:07:55;;;;;;;11.27;8.20;;;;;;;;;;5064167;28;20057;-82
2023/06/16 03:10:22;;;;;;;11.82;8.25;;;;;;;;;;5064342;28;20041;-82
2023/06/16 03:12:48;;;;;;;10.38;8.25;;;;;;;;;;5070708;28;20045;-82
2023/06/16 03:15:15;;;;;;;9.02;8.10;;;;;;;;;;5074742;28;20150;-82
2023/06/16 03:17:43;;;;;;;9.98;7.80;;;;;;;;;;5073327;28;20049;-81
2023/06/16 03:20:10;;;;;;;8.32;7.35;;;;;;;;;;5074053;28;20049;-81
2023/06/16 03:22:37;;;;;;;9.85;8.07;;;;;;;;;;5066186;28;20059;-81
2023/06/16 03:25:06;;;;;;;10.60;8.43;;;;;;;;;;5066247;28;20049;-83
2023/06/16 03:27:32;;;;;;;10.77;8.32;;;;;;;;;;5057564;28;20048;-82
2023/06/16 03:29:59;;;;;;;10.85;8.00;;;;;;;;;;5056138;28;20079;-82
2023/06/16 03:32:27;;;;;;;9.88;8.52;;;;;;;;;;5055431;28;20049;-81
2023/06/16 03:34:55;;;;;;;9.18;7.90;;;;;;;;;;5055027;28;20044;-82
2023/06/16 03:37:21;;;;;;;9.80;7.82;;;;;;;;;;5054530;28;20075;-82
2023/06/16 03:39:48;;;;;;;9.52;7.70;;;;;;;;;;5054318;28;20041;-81
2023/06/16 03:42:16;;;;;;;9.48;7.65;;;;;;;;;;5054420;28;20131;-82
2023/06/16 03:44:43;;;;;;;9.88;8.05;;;;;;;;;;5068010;22;20506;-64
2023/06/16 03:47:10;;;;;;;10.05;7.88;;;;;;;;;;5011424;28;20046;-64
2023/06/16 03:49:37;;;;;;;9.40;7.55;;;;;;;;;;5012393;28;20112;-62
2023/06/16 03:52:04;;;;;;;9.75;7.90;;;;;;;;;;5012134;28;20053;-63
2023/06/16 03:54:31;;;;;;;10.48;7.97;;;;;;;;;;5012409;28;20085;-63
2023/06/16 03:56:58;;;;;;;9.60;7.93;;;;;;;;;;5012743;28;20054;-63
2023/06/16 03:59:27;;;;;;;11.82;8.00;;;;;;;;;;5012015;28;20062;-63
2023/06/16 04:01:57;;;;;;;11.68;8.48;;;;;;;;;;5012031;28;20062;-63
2023/06/16 04:04:25;;;;;;;10.82;8.45;;;;;;;;;;5012139;28;20054;-63
2023/06/16 04:06:52;;;;;;;10.15;8.20;;;;;;;;;;5012189;28;20111;-63
2023/06/16 04:09:19;;;;;;;9.80;8.20;;;;;;;;;;5011613;28;20426;-63
2023/06/16 04:11:45;;;;;;;10.52;8.32;;;;;;;;;;5011748;28;20100;-63
2023/06/16 04:14:12;;;;;;;9.68;7.97;;;;;;;;;;5012225;28;20046;-63
2023/06/16 04:16:42;;;;;;;10.10;8.27;;;;;;;;;;5011675;28;20046;-63
2023/06/16 04:19:09;;;;;;;10.37;8.10;;;;;;;;;;5011819;28;20108;-64
2023/06/16 04:21:36;;;;;;;9.45;7.93;;;;;;;;;;5011862;28;20542;-63
2023/06/16 04:24:03;;;;;;;9.52;8.35;;;;;;;;;;5012321;28;20061;-62
2023/06/16 04:26:32;;;;;;;12.15;8.23;;;;;;;;;;5011878;28;20057;-63
2023/06/16 04:29:03;;;;;;;10.85;7.75;;;;;;;;;;5011099;28;20108;-63
2023/06/16 04:31:33;;;;;;;9.75;7.55;;;;;;;;;;5011838;28;20050;-62
2023/06/16 04:34:03;;;;;;;9.95;7.53;;;;;;;;;;5011808;28;20049;-63
2023/06/16 04:36:30;;;;;;;11.15;8.75;;;;;;;;;;5012104;28;20062;-62
2023/06/16 04:38:57;;;;;;;11.05;8.55;;;;;;;;;;5011414;28;20502;-63
2023/06/16 04:41:24;;;;;;;10.15;8.13;;;;;;;;;;5011562;28;20054;-63
2023/06/16 04:43:51;;;;;;;11.10;8.45;;;;;;;;;;5011972;28;20046;-63
2023/06/16 04:46:18;;;;;;;10.57;7.90;;;;;;;;;;5011333;28;20420;-63
2023/06/16 04:48:45;;;;;;;10.70;7.90;;;;;;;;;;5011307;28;20042;-63
2023/06/16 04:51:13;;;;;;;10.45;8.65;;;;;;;;;;5011675;28;20054;-63
2023/06/16 04:53:40;;;;;;;9.25;7.68;;;;;;;;;;5011926;28;20053;-63
2023/06/16 04:56:07;;;;;;;9.95;8.00;;;;;;;;;;5011556;28;20049;-63
2023/06/16 04:58:34;;;;;;;9.43;8.13;;;;;;;;;;5011441;28;20046;-62
2023/06/16 05:01:00;;;;;;;12.98;8.13;;;;;;;;;;5011110;28;20057;-63
2023/06/16 05:03:27;;;;;;;10.38;7.63;;;;;;;;;;5011456;28;20053;-63
2023/06/16 05:05:54;;;;;;;9.48;7.45;;;;;;;;;;5011925;28;20522;-63
2023/06/16 05:08:23;;;;;;;11.10;7.95;;;;;;;;;;5011691;28;20080;-63
2023/06/16 05:10:49;;;;;;;10.45;7.85;;;;;;;;;;5010971;28;20081;-62
2023/06/16 05:13:16;;;;;;;11.07;7.95;;;;;;;;;;5011353;28;20054;-63
2023/06/16 05:15:43;;;;;;;11.20;8.32;;;;;;;;;;5011546;28;20057;-63
2023/06/16 05:18:10;;;;;;;9.77;8.05;;;;;;;;;;5011109;28;20495;-63
2023/06/16 05:20:36;;;;;;;11.48;8.40;;;;;;;;;;5010341;28;20058;-62
2023/06/16 05:23:03;;;;;;;9.48;7.65;;;;;;;;;;5014588;28;20096;-63
2023/06/16 05:25:32;;;;;;;9.55;8.10;;;;;;;;;;5014671;28;20128;-64
2023/06/16 05:27:59;;;;;;;11.05;7.00;;;;;;;;;;5014580;28;20133;-62
2023/06/16 05:30:25;;;;;;;11.93;8.07;;;;;;;;;;5014204;28;20108;-63
2023/06/16 05:32:52;;;;;;;12.40;8.90;;;;;;;;;;5014634;28;20058;-62
2023/06/16 05:35:19;;;;;;;10.30;8.57;;;;;;;;;;5014951;28;20108;-64
2023/06/16 05:37:46;;;;;;;9.95;7.63;;;;;;;;;;5014928;28;20054;-64
2023/06/16 05:40:13;;;;;;;11.52;7.90;;;;;;;;;;5014213;28;20060;-63
2023/06/16 05:42:41;;;;;;;11.30;8.02;;;;;;;;;;5014606;28;20045;-63
2023/06/16 05:45:09;;;;;;;10.27;7.45;;;;;;;;;;5014683;28;20499;-63
2023/06/16 05:47:35;;;;;;;11.32;7.50;;;;;;;;;;5014987;28;20450;-63
2023/06/16 05:50:02;;;;;;;11.50;7.55;;;;;;;;;;5014445;28;20058;-63
2023/06/16 05:52:30;;;;;;;10.15;7.57;;;;;;;;;;5014054;28;20567;-63
2023/06/16 05:54:57;;;;;;;9.05;7.30;;;;;;;;;;5014629;28;20056;-64
2023/06/16 05:57:24;;;;;;;10.32;6.97;;;;;;;;;;5014515;28;20053;-63
2023/06/16 05:59:53;;;;;;;10.38;7.00;;;;;;;;;;5014372;28;20062;-62
2023/06/16 06:02:20;;;;;;;10.50;7.50;;;;;;;;;;5014164;28;20064;-63
2023/06/16 06:04:47;;;;;;;9.05;7.55;;;;;;;;;;5014899;28;20426;-62
2023/06/16 06:07:14;;;;;;;10.38;6.90;;;;;;;;;;5014245;28;20061;-64
2023/06/16 06:09:41;;;;;;;9.90;7.43;;;;;;;;;;5015070;28;20081;-65
2023/06/16 06:12:11;;;;;;;10.65;7.30;;;;;;;;;;5016655;28;20045;-64
2023/06/16 06:14:38;;;;;;;9.52;6.97;;;;;;;;;;5022406;28;20415;-64
2023/06/16 06:17:06;;;;;;;10.25;7.13;;;;;;;;;;5030639;28;20144;-62
2023/06/16 06:19:33;;;;;;;11.13;7.63;;;;;;;;;;5014216;28;20454;-64
2023/06/16 06:22:00;;;;;;;10.93;7.82;;;;;;;;;;5014372;28;20120;-62
2023/06/16 06:24:27;;;;;;;9.45;7.30;;;;;;;;;;5014682;28;20104;-63
2023/06/16 06:26:53;;;;;;;9.90;7.50;;;;;;;;;;5013974;28;20053;-62
2023/06/16 06:29:20;;;;;;;9.95;7.00;;;;;;;;;;5013695;28;20054;-63
2023/06/16 06:31:47;;;;;;;10.00;7.45;;;;;;;;;;5013636;28;20050;-63
2023/06/16 06:34:15;;;;;;;9.35;6.60;;;;;;;;;;5012563;28;20046;-64
2023/06/16 06:36:42;;;;;;;11.60;7.40;;;;;;;;;;5013766;28;20046;-62
2023/06/16 06:39:09;;;;;;;11.45;7.63;;;;;;;;;;5012445;28;20050;-63
2023/06/16 06:41:36;;;;;;;11.02;7.15;;;;;;;;;;5013798;28;20495;-63
2023/06/16 06:44:03;;;;;;;8.85;7.18;;;;;;;;;;5021673;28;20636;-63
2023/06/16 06:46:30;;;;;;;8.73;7.28;;;;;;;;;;5033753;28;20056;-63
2023/06/16 06:48:57;;;;;;;12.43;7.60;;;;;;;;;;5018369;28;20050;-63
2023/06/16 06:51:25;;;;;;;9.32;6.72;;;;;;;;;;5013871;28;20077;-63
2023/06/16 06:53:53;;;;;;;9.15;7.57;;;;;;;;;;5013225;28;20056;-64
2023/06/16 06:56:20;;;;;;;9.52;7.60;;;;;;;;;;5013654;28;20050;-63
2023/06/16 06:58:47;;;;;;;8.30;7.25;;;;;;;;;;5013216;28;20049;-65
2023/06/16 07:01:14;;;;;;;8.27;7.07;;;;;;;;;;5029312;28;20119;-64
2023/06/16 07:03:41;;;;;;;8.15;6.43;;;;;;;;;;5023620;28;20410;-63
2023/06/16 07:06:08;;;;;;;8.73;7.22;;;;;;;;;;5013510;28;20050;-63
2023/06/16 07:08:36;;;;;;;11.32;7.65;;;;;;;;;;5013299;28;20474;-62
2023/06/16 07:11:03;;;;;;;8.07;6.70;;;;;;;;;;5013355;28;20066;-62
2023/06/16 07:13:30;;;;;;;12.75;7.32;;;;;;;;;;5013249;28;20092;-65
2023/06/16 07:15:57;;;;;;;8.93;7.22;;;;;;;;;;5013186;28;20108;-62
2023/06/16 07:18:23;;;;;;;10.13;7.20;;;;;;;;;;5012784;28;20049;-62
2023/06/16 07:20:50;;;;;;;9.23;7.15;;;;;;;;;;5012891;28;20384;-62
2023/06/16 07:23:17;;;;;;;8.27;6.70;;;;;;;;;;5012912;28;20062;-62
2023/06/16 07:25:45;;;;;;;8.88;6.72;;;;;;;;;;5013135;28;20054;-62
2023/06/16 07:28:12;;;;;;;14.20;7.00;;;;;;;;;;5012562;28;20053;-62
2023/06/16 07:30:40;;;;;;;10.25;7.05;;;;;;;;;;5012037;28;20050;-62
2023/06/16 07:33:08;;;;;;;8.20;6.43;;;;;;;;;;5012847;28;20050;-62
2023/06/16 07:35:35;;;;;;;9.65;7.18;;;;;;;;;;5012104;28;20054;-62
2023/06/16 07:38:02;;;;;;;10.45;7.80;;;;;;;;;;5012570;28;20056;-62
2023/06/16 07:40:30;;;;;;;11.15;7.70;;;;;;;;;;5012882;28;20049;-63
2023/06/16 07:42:59;;;;;;;10.10;7.85;;;;;;;;;;5012763;28;20096;-63
2023/06/16 07:45:26;;;;;;;10.13;7.75;;;;;;;;;;5011251;28;20046;-65
2023/06/16 07:47:52;;;;;;;11.82;7.90;;;;;;;;;;5011132;28;20049;-65
2023/06/16 07:50:19;;;;;;;9.43;7.03;;;;;;;;;;5011533;28;20058;-64
2023/06/16 07:52:46;;;;;;;11.32;7.72;;;;;;;;;;5012067;28;20054;-62
2023/06/16 07:55:14;;;;;;;11.02;7.45;;;;;;;;;;5013659;28;20045;-61
2023/06/16 07:57:41;;;;;;;9.23;7.45;;;;;;;;;;5014460;28;20053;-62
2023/06/16 08:00:12;;;;;;;9.57;7.38;;;;;;;;;;5010903;28;20112;-66
2023/06/16 08:02:40;;;;;;;8.25;6.82;;;;;;;;;;5009425;28;20072;-62
2023/06/16 08:05:07;;;;;;;9.35;7.10;;;;;;;;;;5016407;28;20053;-66
2023/06/16 08:07:34;;;;;;;9.45;6.80;;;;;;;;;;5022540;28;20076;-67
2023/06/16 08:10:01;;;;;;;9.68;6.75;;;;;;;;;;5023094;28;20046;-63
2023/06/16 08:12:28;;;;;;;9.82;6.75;;;;;;;;;;5010421;28;20062;-62
2023/06/16 08:14:55;;;;;;;10.02;6.90;;;;;;;;;;5005067;28;20168;-63
2023/06/16 08:17:23;;;;;;;9.30;7.40;;;;;;;;;;5012682;28;20076;-60
2023/06/16 08:19:52;;;;;;;8.30;6.82;;;;;;;;;;5029225;28;20060;-60
2023/06/16 08:22:19;;;;;;;8.25;6.60;;;;;;;;;;5029827;28;20053;-60
2023/06/16 08:24:46;;;;;;;8.88;6.35;;;;;;;;;;5011139;28;20054;-59
2023/06/16 08:27:14;;;;;;;8.95;5.80;;;;;;;;;;5020401;28;20049;-59
2023/06/16 08:29:41;;;;;;;7.03;5.72;;;;;;;;;;5021191;28;20112;-56
2023/06/16 08:32:08;;;;;;;8.00;5.82;;;;;;;;;;5021238;28;20053;-59
2023/06/16 08:34:36;;;;;;;7.57;5.85;;;;;;;;;;5019133;28;20407;-59
2023/06/16 08:37:04;;;;;;;6.40;5.70;;;;;;;;;;5022343;28;20132;-58
2023/06/16 08:39:32;;;;;;;8.63;5.57;;;;;;;;;;5014957;28;20129;-59
2023/06/16 08:41:59;;;;;;;8.93;5.80;;;;;;;;;;5013551;28;20049;-59
2023/06/16 08:44:28;;;;;;;8.40;6.05;;;;;;;;;;5020307;28;20061;-61
2023/06/16 08:46:56;;;;;;;8.40;5.97;;;;;;;;;;5009337;28;20471;-59
2023/06/16 08:49:23;;;;;;;8.48;5.53;;;;;;;;;;5018102;28;20467;-59
2023/06/16 08:51:53;;;;;;;6.85;5.47;;;;;;;;;;5025049;28;20045;-59
2023/06/16 08:54:21;;;;;;;9.20;5.55;;;;;;;;;;5017703;28;20054;-63
2023/06/16 08:56:50;;;;;;;8.05;5.38;;;;;;;;;;5011337;28;20096;-59
2023/06/16 08:59:18;;;;;;;8.00;5.78;;;;;;;;;;5012436;28;20049;-60
2023/06/16 09:01:46;;;;;;;8.80;5.50;;;;;;;;;;5024431;28;20057;-62
2023/06/16 09:04:14;;;;;;;6.18;5.45;;;;;;;;;;5025093;28;20391;-60
2023/06/16 09:06:45;;;;;;;8.70;5.97;;;;;;;;;;5022317;28;20069;-59
2023/06/16 09:09:14;;;;;;;8.13;5.65;;;;;;;;;;5006542;28;20092;-61
2023/06/16 09:11:41;;;;;;;8.48;6.63;;;;;;;;;;5020721;28;20050;-62
2023/06/16 09:14:13;;;;;;;6.60;5.40;;;;;;;;;;5020919;28;20053;-62
2023/06/16 09:16:40;;;;;;;9.20;6.10;;;;;;;;;;5024711;28;20052;-63
2023/06/16 09:19:08;;;;;;;8.45;6.38;;;;;;;;;;5024605;28;20684;-62
2023/06/16 09:21:35;;;;;;;6.95;5.65;;;;;;;;;;5024501;28;20424;-65
2023/06/16 09:24:03;;;;;;;8.98;5.70;;;;;;;;;;5032938;28;20453;-63
2023/06/16 09:26:36;;;;;;;8.50;5.68;;;;;;;;;;5032702;28;20050;-63
2023/06/16 09:29:03;;;;;;;7.25;5.75;;;;;;;;;;5030472;28;20107;-61
2023/06/16 09:31:30;;;;;;;7.32;5.60;;;;;;;;;;5017489;28;20050;-62
2023/06/16 09:34:05;;;;;;;7.13;5.75;;;;;;;;;;5024520;28;20057;-59
2023/06/16 09:36:32;;;;;;;9.52;5.70;;;;;;;;;;5015891;28;20058;-61
2023/06/16 09:38:59;;;;;;;8.48;6.50;;;;;;;;;;5020547;28;20077;-59
2023/06/16 09:41:26;;;;;;;7.32;5.90;;;;;;;;;;5014865;28;20052;-60
2023/06/16 09:44:00;;;;;;;7.65;6.03;;;;;;;;;;5012429;28;20046;-66
2023/06/16 09:46:26;;;;;;;9.00;5.85;;;;;;;;;;5011951;28;20041;-62
2023/06/16 09:48:53;;;;;;;6.93;5.35;;;;;;;;;;5012477;28;20050;-62
2023/06/16 09:51:22;;;;;;;7.75;5.70;;;;;;;;;;5012109;28;20038;-62
2023/06/16 09:53:49;;;;;;;8.57;6.25;;;;;;;;;;5006315;28;20105;-62
2023/06/16 09:56:17;;;;;;;7.63;5.70;;;;;;;;;;5020531;28;20501;-62
2023/06/16 09:58:44;;;;;;;7.53;5.80;;;;;;;;;;4999704;28;20080;-61
2023/06/16 10:01:14;;;;;;;6.78;5.20;;;;;;;;;;5010868;28;20054;-62
2023/06/16 10:03:43;;;;;;;7.43;4.80;;;;;;;;;;5012350;28;20085;-61
2023/06/16 10:06:15;;;;;;;9.27;5.60;;;;;;;;;;5012104;28;20520;-62
2023/06/16 10:08:43;;;;;;;7.57;6.03;;;;;;;;;;5011777;28;20058;-61
2023/06/16 10:11:12;;;;;;;7.60;6.07;;;;;;;;;;5012431;28;20483;-62
2023/06/16 10:13:41;;;;;;;10.48;6.15;;;;;;;;;;5020801;28;20050;-62
2023/06/16 10:16:11;;;;;;;7.95;5.38;;;;;;;;;;5019939;28;20524;-62
2023/06/16 10:18:41;;;;;;;8.48;5.78;;;;;;;;;;5021479;28;20120;-62
2023/06/16 10:21:10;;;;;;;7.88;5.95;;;;;;;;;;5018594;28;20081;-61
2023/06/16 10:23:37;;;;;;;8.38;6.00;;;;;;;;;;5023735;28;20506;-62
2023/06/16 10:26:04;;;;;;;7.03;5.28;;;;;;;;;;5025445;28;20046;-62
2023/06/16 10:28:32;;;;;;;8.05;5.40;;;;;;;;;;5020070;28;20093;-61
2023/06/16 10:31:00;;;;;;;9.45;5.80;;;;;;;;;;5011565;28;20422;-61
2023/06/16 10:33:28;;;;;;;7.65;4.90;;;;;;;;;;5030219;28;20053;-62
2023/06/16 10:35:57;;;;;;;6.63;4.80;;;;;;;;;;5015904;28;20746;-61
2023/06/16 10:38:33;;;;;;;8.77;5.53;;;;;;;;;;5013399;28;20053;-62
2023/06/16 10:41:02;;;;;;;9.48;5.50;;;;;;;;;;5008296;28;20069;-63
2023/06/16 10:43:29;;;;;;;7.03;5.37;;;;;;;;;;5014840;28;20116;-62
2023/06/16 10:46:18;;;;;;;7.63;5.75;;;;;;;;;;5016945;28;20099;-62
2023/06/16 10:48:57;;;;;;;8.00;5.43;;;;;;;;;;5011248;28;20522;-63
2023/06/16 10:51:47;;;;;;;7.05;5.20;;;;;;;;;;5011739;28;20652;-64
2023/06/16 10:54:15;;;;;;;8.15;5.30;;;;;;;;;;5011525;28;20046;-62
2023/06/16 10:57:06;;;;;;;7.35;5.00;;;;;;;;;;5011255;28;20050;-63
2023/06/16 10:59:57;;;;;;;6.07;4.93;;;;;;;;;;5010578;28;20622;-63
2023/06/16 11:02:26;;;;;;;7.65;5.40;;;;;;;;;;5012399;28;20049;-63
2023/06/16 11:05:12;;;;;;;9.15;4.78;;;;;;;;;;5015600;28;20055;-63
2023/06/16 11:07:41;;;;;;;8.50;5.20;;;;;;;;;;5019959;28;20050;-63
2023/06/16 11:10:09;;;;;;;10.25;5.03;;;;;;;;;;5011120;28;20534;-61
2023/06/16 11:12:36;;;;;;;15.25;5.78;;;;;;;;;;5009791;28;20470;-61
2023/06/16 11:15:07;;;;;;;10.43;5.18;;;;;;;;;;5010464;28;20045;-61
2023/06/16 11:17:34;;;;;;;8.88;5.15;;;;;;;;;;5012016;28;20053;-62
2023/06/16 11:20:05;;;;;;;9.75;5.05;;;;;;;;;;5020226;28;20045;-62
2023/06/16 11:22:33;;;;;;;7.10;4.88;;;;;;;;;;5012153;28;20691;-61
2023/06/16 11:25:03;;;;;;;7.68;4.70;;;;;;;;;;5010565;28;20395;-62
2023/06/16 11:27:30;;;;;;;7.80;5.75;;;;;;;;;;5010786;28;20541;-62
2023/06/16 11:29:57;;;;;;;8.30;5.57;;;;;;;;;;5010979;28;20515;-62
2023/06/16 11:32:26;;;;;;;7.68;5.22;;;;;;;;;;5020069;28;20060;-61
2023/06/16 11:34:54;;;;;;;7.88;5.40;;;;;;;;;;5031013;28;20483;-63
2023/06/16 11:37:22;;;;;;;10.05;5.53;;;;;;;;;;5030798;28;20470;-62
2023/06/16 11:39:48;;;;;;;7.20;5.28;;;;;;;;;;5030244;28;20045;-62
2023/06/16 11:42:17;;;;;;;8.00;5.55;;;;;;;;;;5030348;28;20465;-61
2023/06/16 11:44:44;;;;;;;9.10;5.60;;;;;;;;;;5030808;28;20679;-62
2023/06/16 11:47:12;;;;;;;8.52;5.85;;;;;;;;;;5020037;28;20049;-62
2023/06/16 11:49:39;;;;;;;7.10;5.82;;;;;;;;;;5010646;28;20104;-61
2023/06/16 11:52:07;;;;;;;7.70;5.05;;;;;;;;;;5010487;28;20053;-62
2023/06/16 11:54:34;;;;;;;8.73;5.78;;;;;;;;;;5010714;28;20197;-62
2023/06/16 11:57:01;;;;;;;8.57;5.32;;;;;;;;;;5010886;28;20045;-60
2023/06/16 11:59:30;;;;;;;8.10;5.90;;;;;;;;;;5010410;28;20060;-60
2023/06/16 12:01:58;;;;;;;6.75;5.10;;;;;;;;;;5010458;28;20053;-59
2023/06/16 12:04:26;;;;;;;7.97;5.60;;;;;;;;;;5020312;28;20111;-60
2023/06/16 12:06:54;;;;;;;9.02;5.55;;;;;;;;;;5018168;28;20445;-60
2023/06/16 12:09:21;;;;;;;9.07;5.20;;;;;;;;;;5015000;28;20120;-60
2023/06/16 12:11:48;;;;;;;7.97;5.28;;;;;;;;;;5009287;28;20411;-60
2023/06/16 12:14:21;;;;;;;8.05;5.15;;;;;;;;;;5014445;28;20057;-60
2023/06/16 12:16:50;;;;;;;6.95;5.30;;;;;;;;;;5010919;28;20189;-60
2023/06/16 12:19:19;;;;;;;8.68;5.35;;;;;;;;;;5009765;28;20057;-59
2023/06/16 12:21:50;;;;;;;7.10;4.75;;;;;;;;;;5028547;28;20049;-60
2023/06/16 12:24:20;;;;;;;8.65;5.30;;;;;;;;;;5029592;28;20053;-60
2023/06/16 12:26:47;;;;;;;7.25;5.00;;;;;;;;;;5010443;28;20104;-58
2023/06/16 12:29:15;;;;;;;6.82;5.13;;;;;;;;;;5012964;28;20388;-59
2023/06/16 12:31:54;;;;;;;8.18;5.32;;;;;;;;;;5014438;28;20049;-63
2023/06/16 12:34:23;;;;;;;9.13;5.20;;;;;;;;;;5014494;28;20054;-60
2023/06/16 12:36:50;;;;;;;9.05;5.13;;;;;;;;;;5025258;28;20048;-61
2023/06/16 12:39:17;;;;;;;8.10;5.22;;;;;;;;;;5020815;28;20050;-60
2023/06/16 12:41:59;;;;;;;9.00;5.07;;;;;;;;;;5028828;28;20132;-60
2023/06/16 12:44:41;;;;;;;6.97;4.75;;;;;;;;;;5028925;28;20054;-60
2023/06/16 12:47:10;;;;;;;11.07;5.13;;;;;;;;;;5013811;28;20058;-60
2023/06/16 12:49:37;;;;;;;8.23;5.28;;;;;;;;;;5013226;28;20072;-61
2023/06/16 12:52:05;;;;;;;8.82;5.80;;;;;;;;;;5013743;28;20244;-60
2023/06/16 12:54:32;;;;;;;9.25;5.70;;;;;;;;;;5016306;28;20474;-60
2023/06/16 12:56:59;;;;;;;8.80;5.22;;;;;;;;;;5024359;28;20049;-60
2023/06/16 12:59:26;;;;;;;9.88;5.38;;;;;;;;;;5024362;28;20108;-59
2023/06/16 13:01:52;;;;;;;8.43;5.20;;;;;;;;;;5015579;28;20053;-60
2023/06/16 13:04:21;;;;;;;8.02;5.43;;;;;;;;;;5015422;28;20414;-62
2023/06/16 13:06:47;;;;;;;8.80;5.47;;;;;;;;;;5029179;28;20125;-66
2023/06/16 13:09:20;;;;;;;8.43;4.95;;;;;;;;;;5021578;28;20054;-66
2023/06/16 13:11:47;;;;;;;7.65;5.13;;;;;;;;;;5003960;28;20046;-64
2023/06/16 13:14:14;;;;;;;8.95;5.18;;;;;;;;;;5014801;28;20053;-66
2023/06/16 13:16:41;;;;;;;9.13;5.32;;;;;;;;;;5013338;28;20570;-65
2023/06/16 13:19:08;;;;;;;8.88;5.35;;;;;;;;;;5012837;28;20097;-61
2023/06/16 13:21:36;;;;;;;8.48;5.70;;;;;;;;;;5013199;28;20054;-60
2023/06/16 13:24:03;;;;;;;7.40;5.30;;;;;;;;;;5021132;28;20549;-61
2023/06/16 13:26:30;;;;;;;8.80;5.63;;;;;;;;;;5019224;28;20038;-65
2023/06/16 13:28:57;;;;;;;8.02;5.43;;;;;;;;;;5018201;28;20045;-59
2023/06/16 13:31:24;;;;;;;7.57;5.80;;;;;;;;;;5016924;28;20521;-61
2023/06/16 13:33:51;;;;;;;8.52;5.53;;;;;;;;;;5021569;28;20095;-60
2023/06/16 13:36:20;;;;;;;7.13;5.20;;;;;;;;;;5015062;28;20053;-61
2023/06/16 13:38:49;;;;;;;9.68;5.70;;;;;;;;;;5015154;28;20089;-63
2023/06/16 13:41:16;;;;;;;8.90;5.75;;;;;;;;;;5025192;28;20053;-63
2023/06/16 13:43:45;;;;;;;9.82;5.10;;;;;;;;;;5012661;28;20104;-63
2023/06/16 13:46:11;;;;;;;7.75;5.10;;;;;;;;;;5016927;28;20057;-63
2023/06/16 13:48:38;;;;;;;7.68;5.28;;;;;;;;;;5009673;28;20108;-63
2023/06/16 13:51:05;;;;;;;8.30;5.93;;;;;;;;;;5025786;28;20050;-63
2023/06/16 13:53:32;;;;;;;8.35;5.43;;;;;;;;;;5023832;28;20499;-62
2023/06/16 13:56:00;;;;;;;8.57;5.13;;;;;;;;;;5027053;28;20092;-63
2023/06/16 13:58:27;;;;;;;9.63;5.93;;;;;;;;;;5022590;28;20054;-62
2023/06/16 14:00:54;;;;;;;8.70;5.80;;;;;;;;;;5020996;28;20096;-63
2023/06/16 14:03:21;;;;;;;8.15;5.85;;;;;;;;;;5020999;28;20056;-63
2023/06/16 14:05:48;;;;;;;10.63;5.90;;;;;;;;;;5029021;28;20069;-63
2023/06/16 14:08:15;;;;;;;9.85;6.47;;;;;;;;;;5032148;28;20058;-63
2023/06/16 14:10:42;;;;;;;8.80;6.60;;;;;;;;;;5027125;28;20046;-63
2023/06/16 14:13:11;;;;;;;8.52;5.93;;;;;;;;;;5012289;28;20627;-61
2023/06/16 14:15:38;;;;;;;8.75;6.25;;;;;;;;;;5022920;28;20050;-62
2023/06/16 14:18:06;;;;;;;10.75;5.95;;;;;;;;;;5024011;28;20523;-62
2023/06/16 14:20:32;;;;;;;9.15;5.90;;;;;;;;;;5012592;28;20553;-62
2023/06/16 14:22:59;;;;;;;10.90;6.13;;;;;;;;;;5011719;28;20050;-62
2023/06/16 14:25:26;;;;;;;8.48;6.25;;;;;;;;;;5020126;28;20049;-62
2023/06/16 14:27:53;;;;;;;7.85;5.53;;;;;;;;;;5020171;28;20053;-63
2023/06/16 14:30:21;;;;;;;8.32;5.50;;;;;;;;;;5011854;28;20088;-63
2023/06/16 14:32:48;;;;;;;7.45;5.35;;;;;;;;;;5012520;28;20539;-62
2023/06/16 14:35:15;;;;;;;9.30;5.75;;;;;;;;;;5009897;28;20349;-62
2023/06/16 14:37:42;;;;;;;8.52;5.70;;;;;;;;;;5021220;28;20046;-62
2023/06/16 14:40:09;;;;;;;7.72;5.72;;;;;;;;;;5026443;28;20052;-61
2023/06/16 14:42:37;;;;;;;7.90;5.63;;;;;;;;;;5018386;28;20057;-63
2023/06/16 14:45:04;;;;;;;8.93;5.70;;;;;;;;;;5010590;28;20189;-62